Norwegian Sky — C6PZ8 — position and weather

sailwx.info

Track history (hours):
 
Tides and Currents Weather Stations Pressure Air Temp Water Temp Dewpoint Dewpoint Depression Visibility Wind Speed Wind Dir Waves Ship Positions

Norwegian Sky (Norway)

Operator: Norwegian Cruise Line

Last reported at 2019-Sep-21 23:29 UTC. Time now 2019-Sep-21 23:55 UTC.
Position N 20°31' W 086°57'.

Length 258 m; draft 8.1 m.

Type: Ship. MMSI: 308865000.

Date/timePositionNaut miles runAvg speedWind from/ knotsBaromVisibWave heightAir tempDewpointWater temp
2019-Sep-21 23:29N 20°31' W 086°57'0 0.0
2019-Sep-21 22:59N 20°31' W 086°57'0 0.0
2019-Sep-21 22:29N 20°31' W 086°57'0 0.0
2019-Sep-21 21:59N 20°31' W 086°57'0 0.0
2019-Sep-21 21:29N 20°31' W 086°57'0 0.0
2019-Sep-21 20:59N 20°31' W 086°57'0 0.0
2019-Sep-21 20:29N 20°31' W 086°57'0 0.0
2019-Sep-21 19:59N 20°31' W 086°57'0 0.0
2019-Sep-21 19:29N 20°31' W 086°57'0 0.0
2019-Sep-21 18:59N 20°31' W 086°57'0 0.0
2019-Sep-21 18:29N 20°31' W 086°57'0 0.0
2019-Sep-21 17:59N 20°31' W 086°57'0 0.0
2019-Sep-21 17:29N 20°31' W 086°57'0 0.0
2019-Sep-21 17:00N 20°31' W 086°57'3196.8
2019-Sep-21 17:00N 20°30' W 086°54'3 6.3 020 / 81013.010.8 30.024.626.0
2019-Sep-21 16:29N 20°31' W 086°57'0 0.0
2019-Sep-21 16:00N 20°31' W 086°57'2 3.6
2019-Sep-21 15:30N 20°30' W 086°59'611.5
2019-Sep-21 15:00N 20°35' W 086°56'917.7
2019-Sep-21 14:30N 20°43' W 086°51'23820.7
2019-Sep-21 03:00N 23°18' W 083°36'247 9.9 090 / 251015.010.8 29.024.923.0
2019-Sep-20 02:00N 25°54' W 080°06'3520.9 070 / 231014.010.8 29.023.524.0
2019-Sep-20 00:18N 25°19' W 079°59'414.1
2019-Sep-20 00:00N 25°23' W 079°59'714.3
2019-Sep-19 23:31N 25°30' W 080°00'714.8
2019-Sep-19 23:01N 25°38' W 080°02'815.8
2019-Sep-19 22:31N 25°45' W 080°04'5 9.5
2019-Sep-19 22:00N 25°46' W 080°09'1 2.4
2019-Sep-19 21:30N 25°47' W 080°11'0 0.1
2019-Sep-19 21:00N 25°47' W 080°11'0 0.1
2019-Sep-19 20:29N 25°47' W 080°11'0 0.0
2019-Sep-19 19:59N 25°47' W 080°11'0 0.0
2019-Sep-19 19:20N 25°47' W 080°11'0 0.0
2019-Sep-19 18:59N 25°47' W 080°11'0 0.0
2019-Sep-19 18:30N 25°47' W 080°11'0 0.0
2019-Sep-19 17:57N 25°47' W 080°11'0 0.0
2019-Sep-19 17:29N 25°47' W 080°11'0 0.0
2019-Sep-19 16:59N 25°47' W 080°11'0 0.0
2019-Sep-19 16:29N 25°47' W 080°11'0 0.0
2019-Sep-19 15:59N 25°47' W 080°11'0 0.0
2019-Sep-19 15:29N 25°47' W 080°11'0 0.0
2019-Sep-19 15:00N 25°47' W 080°11'0 0.0
2019-Sep-19 14:29N 25°47' W 080°11'0 0.0
2019-Sep-19 14:00N 25°47' W 080°11'0 0.0
2019-Sep-19 13:29N 25°47' W 080°11'0 0.0
2019-Sep-19 12:59N 25°47' W 080°11'0 0.0
2019-Sep-19 12:30N 25°47' W 080°11'0 0.0
2019-Sep-19 11:56N 25°47' W 080°11'0 0.0
2019-Sep-19 11:29N 25°47' W 080°11'0 0.0
2019-Sep-19 11:00N 25°47' W 080°11'0 0.0
2019-Sep-19 10:29N 25°47' W 080°11'0 0.0
2019-Sep-19 09:59N 25°47' W 080°11'2 3.9
2019-Sep-19 09:30N 25°46' W 080°09'510.1
2019-Sep-19 09:00N 25°46' W 080°03'714.7
2019-Sep-19 08:30N 25°49' W 079°56'816.5
2019-Sep-19 08:00N 25°53' W 079°48'714.6
2019-Sep-19 07:30N 25°57' W 079°40'612.3
2019-Sep-19 07:01N 25°60' W 079°34'5 9.8
2019-Sep-19 06:30N 26°02' W 079°30'510.5
2019-Sep-19 06:01N 26°04' W 079°24'714.1
2019-Sep-19 05:31N 26°07' W 079°17'815.5
2019-Sep-19 04:59N 26°11' W 079°09'3517.7
2019-Sep-19 03:00N 26°06' W 078°30'44 1.7 060 / 321014.010.8 25.023.620.0
2019-Sep-18 02:00N 26°00' W 077°42'88 4.9 010 / 151014.010.8 28.025.325.0
2019-Sep-17 08:16N 26°08' W 079°19'417.4
2019-Sep-17 08:00N 26°04' W 079°22'917.9
2019-Sep-17 07:30N 25°57' W 079°27'918.0
2019-Sep-17 07:00N 25°49' W 079°33'918.2
2019-Sep-17 06:31N 25°41' W 079°37'918.5
2019-Sep-17 06:00N 25°32' W 079°41'918.5
2019-Sep-17 05:31N 25°24' W 079°45'918.5
2019-Sep-17 05:00N 25°15' W 079°49'8213.7
2019-Sep-16 23:00N 24°24' W 081°00'44 4.9 350 / 161014.010.8 30.024.630.0
2019-Sep-16 14:00N 24°30' W 081°48'44 4.0 290 / 111016.027.0 30.024.627.0
2019-Sep-16 03:00N 24°00' W 081°12'65 5.4 280 / 71016.010.8 29.024.921.0
2019-Sep-15 15:00N 24°24' W 080°06'67 6.0 260 / 151015.010.8 30.024.621.0
2019-Sep-15 03:53N 25°25' W 079°36'2 6.1
2019-Sep-15 03:30N 25°27' W 079°36'3 6.1
2019-Sep-15 03:00N 25°30' W 079°36'034.0
2019-Sep-15 03:00N 25°30' W 079°36'3 6.9 320 / 61014.010.8 28.023.921.0
2019-Sep-15 02:30N 25°33' W 079°36'3 6.2
2019-Sep-15 02:00N 25°36' W 079°36'3 6.3
2019-Sep-15 01:30N 25°39' W 079°37'3 6.2
2019-Sep-15 01:00N 25°42' W 079°38'3 6.1
2019-Sep-15 00:30N 25°45' W 079°40'4 7.4
2019-Sep-15 00:00N 25°46' W 079°44'4 8.5
2019-Sep-14 23:30N 25°46' W 079°48'4 8.5
2019-Sep-14 23:00N 25°46' W 079°53'5 9.2
2019-Sep-14 22:30N 25°46' W 079°58'5 9.3
2019-Sep-14 22:00N 25°46' W 080°03'5 9.5
2019-Sep-14 21:30N 25°46' W 080°09'2 3.9
2019-Sep-14 20:58N 25°47' W 080°11'0 0.0
2019-Sep-14 20:28N 25°47' W 080°11'0 0.0
2019-Sep-14 19:58N 25°47' W 080°11'0 0.0
2019-Sep-14 19:28N 25°47' W 080°11'0 0.0
2019-Sep-14 18:58N 25°47' W 080°11'0 0.0
2019-Sep-14 18:28N 25°47' W 080°11'0 0.0
2019-Sep-14 17:58N 25°47' W 080°11'0 0.0
2019-Sep-14 17:28N 25°47' W 080°11'0 0.0
2019-Sep-14 16:58N 25°47' W 080°11'0 0.0
2019-Sep-14 16:28N 25°47' W 080°11'0 0.0
2019-Sep-14 15:58N 25°47' W 080°11'0 0.0
2019-Sep-14 15:28N 25°47' W 080°11'613.3
2019-Sep-14 15:00N 25°42' W 080°06'6354.9 010 / 81014.0 5.4 27.024.320.0
2019-Sep-14 14:58N 25°47' W 080°11'0 0.0
2019-Sep-14 14:28N 25°47' W 080°11'0 0.0
2019-Sep-14 13:58N 25°47' W 080°11'0 0.0
2019-Sep-14 13:28N 25°47' W 080°11'0 0.0
2019-Sep-14 12:58N 25°47' W 080°11'0 0.0
2019-Sep-14 12:28N 25°47' W 080°11'0 0.0
2019-Sep-14 11:58N 25°47' W 080°11'0 0.0
2019-Sep-14 11:28N 25°47' W 080°11'0 0.0
2019-Sep-14 10:58N 25°47' W 080°11'0 0.7
2019-Sep-14 10:30N 25°47' W 080°11'3 6.3
2019-Sep-14 10:00N 25°46' W 080°08'510.7
2019-Sep-14 09:30N 25°46' W 080°02'4 8.3
2019-Sep-14 09:00N 25°45' W 079°57'4 8.8
2019-Sep-14 08:30N 25°42' W 079°54'4 8.6
2019-Sep-14 08:00N 25°39' W 079°51'4 8.3
2019-Sep-14 07:30N 25°36' W 079°48'4 8.6
2019-Sep-14 07:00N 25°32' W 079°47'611.8
2019-Sep-14 06:31N 25°26' W 079°44'713.9
2019-Sep-14 06:00N 25°20' W 079°41'8 0.6
2019-Sep-13 16:38N 25°25' W 079°35'1 9.3
2019-Sep-13 16:29N 25°27' W 079°35'4 9.3
2019-Sep-13 16:00N 25°31' W 079°35'4286.9
2019-Sep-13 16:00N 25°30' W 079°30'714.6 060 / 251014.010.8 28.023.920.0
2019-Sep-13 15:30N 25°36' W 079°35'5 9.2
2019-Sep-13 15:00N 25°40' W 079°35'5 9.1
2019-Sep-13 14:30N 25°45' W 079°35'5 9.1
2019-Sep-13 14:00N 25°49' W 079°34'5 9.2
2019-Sep-13 13:30N 25°54' W 079°32'510.0
2019-Sep-13 13:00N 25°57' W 079°29'510.1
2019-Sep-13 12:30N 26°01' W 079°25'510.3
2019-Sep-13 12:00N 26°05' W 079°21'610.9
2019-Sep-13 11:30N 26°08' W 079°16'2516.9
2019-Sep-13 10:00N 26°06' W 078°48'8410.5 050 / 181012.0 5.4 27.022.825.0
2019-Sep-13 02:00N 25°30' W 077°24'40 1.8 100 / 251013.010.8 27.024.320.0
2019-Sep-12 03:00N 25°54' W 078°00'   050 / 281015.010.8 26.024.620.0
Track history (hours):
 
Tides and Currents Weather Stations Pressure Air Temp Water Temp Dewpoint Dewpoint Depression Visibility Wind Speed Wind Dir Waves Ship Positions

Norwegian Sky (Norway)

Operator: Norwegian Cruise Line

Last reported at 2019-Sep-21 23:29 UTC. Time now 2019-Sep-21 23:55 UTC.
Position N 20°31' W 086°57'.

Length 258 m; draft 8.1 m.

Type: Ship. MMSI: 308865000.

Date/timePositionNaut miles runAvg speedWind from/ knotsBaromVisibWave heightAir tempDewpointWater temp
2019-Sep-21 23:29N 20°31' W 086°57'0 0.0
2019-Sep-21 22:59N 20°31' W 086°57'0 0.0
2019-Sep-21 22:29N 20°31' W 086°57'0 0.0
2019-Sep-21 21:59N 20°31' W 086°57'0 0.0
2019-Sep-21 21:29N 20°31' W 086°57'0 0.0
2019-Sep-21 20:59N 20°31' W 086°57'0 0.0
2019-Sep-21 20:29N 20°31' W 086°57'0 0.0
2019-Sep-21 19:59N 20°31' W 086°57'0 0.0
2019-Sep-21 19:29N 20°31' W 086°57'0 0.0
2019-Sep-21 18:59N 20°31' W 086°57'0 0.0
2019-Sep-21 18:29N 20°31' W 086°57'0 0.0
2019-Sep-21 17:59N 20°31' W 086°57'0 0.0
2019-Sep-21 17:29N 20°31' W 086°57'0 0.0
2019-Sep-21 17:00N 20°31' W 086°57'3196.8
2019-Sep-21 17:00N 20°30' W 086°54'3 6.3 020 / 81013.010.8 30.024.626.0
2019-Sep-21 16:29N 20°31' W 086°57'0 0.0
2019-Sep-21 16:00N 20°31' W 086°57'2 3.6
2019-Sep-21 15:30N 20°30' W 086°59'611.5
2019-Sep-21 15:00N 20°35' W 086°56'917.7
2019-Sep-21 14:30N 20°43' W 086°51'23820.7
2019-Sep-21 03:00N 23°18' W 083°36'247 9.9 090 / 251015.010.8 29.024.923.0
2019-Sep-20 02:00N 25°54' W 080°06'3520.9 070 / 231014.010.8 29.023.524.0
2019-Sep-20 00:18N 25°19' W 079°59'414.1
2019-Sep-20 00:00N 25°23' W 079°59'714.3
2019-Sep-19 23:31N 25°30' W 080°00'714.8
2019-Sep-19 23:01N 25°38' W 080°02'815.8
2019-Sep-19 22:31N 25°45' W 080°04'5 9.5
2019-Sep-19 22:00N 25°46' W 080°09'1 2.4
2019-Sep-19 21:30N 25°47' W 080°11'0 0.1
2019-Sep-19 21:00N 25°47' W 080°11'0 0.1
2019-Sep-19 20:29N 25°47' W 080°11'0 0.0
2019-Sep-19 19:59N 25°47' W 080°11'0 0.0
2019-Sep-19 19:20N 25°47' W 080°11'0 0.0
2019-Sep-19 18:59N 25°47' W 080°11'0 0.0
2019-Sep-19 18:30N 25°47' W 080°11'0 0.0
2019-Sep-19 17:57N 25°47' W 080°11'0 0.0
2019-Sep-19 17:29N 25°47' W 080°11'0 0.0
2019-Sep-19 16:59N 25°47' W 080°11'0 0.0
2019-Sep-19 16:29N 25°47' W 080°11'0 0.0
2019-Sep-19 15:59N 25°47' W 080°11'0 0.0
2019-Sep-19 15:29N 25°47' W 080°11'0 0.0
2019-Sep-19 15:00N 25°47' W 080°11'0 0.0
2019-Sep-19 14:29N 25°47' W 080°11'0 0.0
2019-Sep-19 14:00N 25°47' W 080°11'0 0.0
2019-Sep-19 13:29N 25°47' W 080°11'0 0.0
2019-Sep-19 12:59N 25°47' W 080°11'0 0.0
2019-Sep-19 12:30N 25°47' W 080°11'0 0.0
2019-Sep-19 11:56N 25°47' W 080°11'0 0.0
2019-Sep-19 11:29N 25°47' W 080°11'0 0.0
2019-Sep-19 11:00N 25°47' W 080°11'0 0.0
2019-Sep-19 10:29N 25°47' W 080°11'0 0.0
2019-Sep-19 09:59N 25°47' W 080°11'2 3.9
2019-Sep-19 09:30N 25°46' W 080°09'510.1
2019-Sep-19 09:00N 25°46' W 080°03'714.7
2019-Sep-19 08:30N 25°49' W 079°56'816.5
2019-Sep-19 08:00N 25°53' W 079°48'714.6
2019-Sep-19 07:30N 25°57' W 079°40'612.3
2019-Sep-19 07:01N 25°60' W 079°34'5 9.8
2019-Sep-19 06:30N 26°02' W 079°30'510.5
2019-Sep-19 06:01N 26°04' W 079°24'714.1
2019-Sep-19 05:31N 26°07' W 079°17'815.5
2019-Sep-19 04:59N 26°11' W 079°09'3517.7
2019-Sep-19 03:00N 26°06' W 078°30'44 1.7 060 / 321014.010.8 25.023.620.0
2019-Sep-18 02:00N 26°00' W 077°42'88 4.9 010 / 151014.010.8 28.025.325.0
2019-Sep-17 08:16N 26°08' W 079°19'417.4
2019-Sep-17 08:00N 26°04' W 079°22'917.9
2019-Sep-17 07:30N 25°57' W 079°27'918.0
2019-Sep-17 07:00N 25°49' W 079°33'918.2
2019-Sep-17 06:31N 25°41' W 079°37'918.5
2019-Sep-17 06:00N 25°32' W 079°41'918.5
2019-Sep-17 05:31N 25°24' W 079°45'918.5
2019-Sep-17 05:00N 25°15' W 079°49'8213.7
2019-Sep-16 23:00N 24°24' W 081°00'44 4.9 350 / 161014.010.8 30.024.630.0
2019-Sep-16 14:00N 24°30' W 081°48'44 4.0 290 / 111016.027.0 30.024.627.0
2019-Sep-16 03:00N 24°00' W 081°12'65 5.4 280 / 71016.010.8 29.024.921.0
2019-Sep-15 15:00N 24°24' W 080°06'67 6.0 260 / 151015.010.8 30.024.621.0
2019-Sep-15 03:53N 25°25' W 079°36'2 6.1
2019-Sep-15 03:30N 25°27' W 079°36'3 6.1
2019-Sep-15 03:00N 25°30' W 079°36'034.0
2019-Sep-15 03:00N 25°30' W 079°36'3 6.9 320 / 61014.010.8 28.023.921.0
2019-Sep-15 02:30N 25°33' W 079°36'3 6.2
2019-Sep-15 02:00N 25°36' W 079°36'3 6.3
2019-Sep-15 01:30N 25°39' W 079°37'3 6.2
2019-Sep-15 01:00N 25°42' W 079°38'3 6.1
2019-Sep-15 00:30N 25°45' W 079°40'4 7.4
2019-Sep-15 00:00N 25°46' W 079°44'4 8.5
2019-Sep-14 23:30N 25°46' W 079°48'4 8.5
2019-Sep-14 23:00N 25°46' W 079°53'5 9.2
2019-Sep-14 22:30N 25°46' W 079°58'5 9.3
2019-Sep-14 22:00N 25°46' W 080°03'5 9.5
2019-Sep-14 21:30N 25°46' W 080°09'2 3.9
2019-Sep-14 20:58N 25°47' W 080°11'0 0.0
2019-Sep-14 20:28N 25°47' W 080°11'0 0.0
2019-Sep-14 19:58N 25°47' W 080°11'0 0.0
2019-Sep-14 19:28N 25°47' W 080°11'0 0.0
2019-Sep-14 18:58N 25°47' W 080°11'0 0.0
2019-Sep-14 18:28N 25°47' W 080°11'0 0.0
2019-Sep-14 17:58N 25°47' W 080°11'0 0.0
2019-Sep-14 17:28N 25°47' W 080°11'0 0.0
2019-Sep-14 16:58N 25°47' W 080°11'0 0.0
2019-Sep-14 16:28N 25°47' W 080°11'0 0.0
2019-Sep-14 15:58N 25°47' W 080°11'0 0.0
2019-Sep-14 15:28N 25°47' W 080°11'613.3
2019-Sep-14 15:00N 25°42' W 080°06'6354.9 010 / 81014.0 5.4 27.024.320.0
2019-Sep-14 14:58N 25°47' W 080°11'0 0.0
2019-Sep-14 14:28N 25°47' W 080°11'0 0.0
2019-Sep-14 13:58N 25°47' W 080°11'0 0.0
2019-Sep-14 13:28N 25°47' W 080°11'0 0.0
2019-Sep-14 12:58N 25°47' W 080°11'0 0.0
2019-Sep-14 12:28N 25°47' W 080°11'0 0.0
2019-Sep-14 11:58N 25°47' W 080°11'0 0.0
2019-Sep-14 11:28N 25°47' W 080°11'0 0.0
2019-Sep-14 10:58N 25°47' W 080°11'0 0.7
2019-Sep-14 10:30N 25°47' W 080°11'3 6.3
2019-Sep-14 10:00N 25°46' W 080°08'510.7
2019-Sep-14 09:30N 25°46' W 080°02'4 8.3
2019-Sep-14 09:00N 25°45' W 079°57'4 8.8
2019-Sep-14 08:30N 25°42' W 079°54'4 8.6
2019-Sep-14 08:00N 25°39' W 079°51'4 8.3
2019-Sep-14 07:30N 25°36' W 079°48'4 8.6
2019-Sep-14 07:00N 25°32' W 079°47'611.8
2019-Sep-14 06:31N 25°26' W 079°44'713.9
2019-Sep-14 06:00N 25°20' W 079°41'8 0.6
2019-Sep-13 16:38N 25°25' W 079°35'1 9.3
2019-Sep-13 16:29N 25°27' W 079°35'4 9.3
2019-Sep-13 16:00N 25°31' W 079°35'4286.9
2019-Sep-13 16:00N 25°30' W 079°30'714.6 060 / 251014.010.8 28.023.920.0
2019-Sep-13 15:30N 25°36' W 079°35'5 9.2
2019-Sep-13 15:00N 25°40' W 079°35'5 9.1
2019-Sep-13 14:30N 25°45' W 079°35'5 9.1
2019-Sep-13 14:00N 25°49' W 079°34'5 9.2
2019-Sep-13 13:30N 25°54' W 079°32'510.0
2019-Sep-13 13:00N 25°57' W 079°29'510.1
2019-Sep-13 12:30N 26°01' W 079°25'510.3
2019-Sep-13 12:00N 26°05' W 079°21'610.9
2019-Sep-13 11:30N 26°08' W 079°16'2516.9
2019-Sep-13 10:00N 26°06' W 078°48'8410.5 050 / 181012.0 5.4 27.022.825.0
2019-Sep-13 02:00N 25°30' W 077°24'40 1.8 100 / 251013.010.8 27.024.320.0
2019-Sep-12 03:00N 25°54' W 078°00'   050 / 281015.010.8 26.024.620.0

Dump ship's entire track history